Time;durP1;ratioP1;P1;durP2;ratioP2;P2;SDS_P1;SDS_P2;PMS_P1;PMS_P2;Temp;Humidity;BMP_temperature;BMP_pressure;BME280_temperature;BME280_humidity;BME280_pressure;Samples;Min_cycle;Max_cycle;Signal;HPM_P1;HPM_P2
2024/01/07 00:00:14;;;;;;;;;;;3.50;99.90;;;;;;5065875;28;19924;-66
2024/01/07 00:02:42;;;;;;;;;;;3.40;99.90;;;;;;5070836;28;20390;-66
2024/01/07 00:05:08;;;;;;;;;;;3.50;99.90;;;;;;5062883;28;19970;-66
2024/01/07 00:07:35;;;;;;;;;;;3.40;99.90;;;;;;5060874;28;19971;-66
2024/01/07 00:10:01;;;;;;;;;;;3.40;99.90;;;;;;5062305;28;19925;-66
2024/01/07 00:12:28;;;;;;;;;;;3.40;99.90;;;;;;5067147;28;19924;-66
2024/01/07 00:14:54;;;;;;;;;;;3.40;99.90;;;;;;5067546;28;20436;-66
2024/01/07 00:17:21;;;;;;;;;;;3.40;99.90;;;;;;5065542;28;19928;-67
2024/01/07 00:19:49;;;;;;;;;;;3.40;99.90;;;;;;5069006;28;19936;-67
2024/01/07 00:22:15;;;;;;;;;;;3.40;99.90;;;;;;5065685;28;20341;-66
2024/01/07 00:24:42;;;;;;;;;;;3.40;99.90;;;;;;5063029;28;20000;-66
2024/01/07 00:27:08;;;;;;;;;;;3.40;99.90;;;;;;5068544;28;21773;-66
2024/01/07 00:29:35;;;;;;;;;;;3.40;99.90;;;;;;5066578;28;19925;-66
2024/01/07 00:32:02;;;;;;;;;;;3.40;99.90;;;;;;5056449;28;19925;-66
2024/01/07 00:34:28;;;;;;;;;;;3.40;99.90;;;;;;5059867;28;19932;-66
2024/01/07 00:36:56;;;;;;;;;;;3.40;99.90;;;;;;5066549;28;19955;-66
2024/01/07 00:39:23;;;;;;;;;;;3.40;99.90;;;;;;5066780;28;19928;-66
2024/01/07 00:41:49;;;;;;;;;;;3.40;99.90;;;;;;5068619;28;19925;-66
2024/01/07 00:44:16;;;;;;;;;;;3.30;99.90;;;;;;5062310;28;19925;-67
2024/01/07 00:46:42;;;;;;;;;;;3.40;99.90;;;;;;5064364;28;19929;-67
2024/01/07 00:49:08;;;;;;;;;;;3.40;99.90;;;;;;5065008;28;19925;-66
2024/01/07 00:51:34;;;;;;;;;;;3.40;99.90;;;;;;5063333;28;19970;-66
2024/01/07 00:54:02;;;;;;;;;;;3.40;99.90;;;;;;5068759;28;19987;-66
2024/01/07 00:56:29;;;;;;;;;;;3.40;99.90;;;;;;5068244;28;19925;-66
2024/01/07 00:58:55;;;;;;;;;;;3.40;99.90;;;;;;5067119;28;19959;-66
2024/01/07 01:01:22;;;;;;;;;;;3.40;99.90;;;;;;5067164;28;19924;-66
2024/01/07 01:03:48;;;;;;;;;;;3.40;99.90;;;;;;5067565;28;19955;-66
2024/01/07 01:06:15;;;;;;;;;;;3.30;99.90;;;;;;5070503;28;20436;-66
2024/01/07 01:08:41;;;;;;;;;;;3.40;99.90;;;;;;5065128;28;19928;-66
2024/01/07 01:11:11;;;;;;;;;;;3.40;99.90;;;;;;5071136;28;19929;-66
2024/01/07 01:13:37;;;;;;;;;;;3.30;99.90;;;;;;5068724;28;20465;-66
2024/01/07 01:16:04;;;;;;;;;;;3.40;99.90;;;;;;5070450;28;19924;-67
2024/01/07 01:18:31;;;;;;;;;;;3.40;99.90;;;;;;5065267;28;19979;-66
2024/01/07 01:20:57;;;;;;;;;;;3.30;99.90;;;;;;5072751;28;19955;-66
2024/01/07 01:23:24;;;;;;;;;;;3.30;99.90;;;;;;5063484;28;19928;-66
2024/01/07 01:25:50;;;;;;;;;;;3.40;99.90;;;;;;5064716;28;20394;-66
2024/01/07 01:28:18;;;;;;;;;;;3.30;99.90;;;;;;5068519;28;19978;-66
2024/01/07 01:30:44;;;;;;;;;;;3.30;99.90;;;;;;5066652;28;19933;-66
2024/01/07 01:33:11;;;;;;;;;;;3.30;99.90;;;;;;5070869;28;19971;-66
2024/01/07 01:35:37;;;;;;;;;;;3.30;99.90;;;;;;5073858;28;19928;-66
2024/01/07 01:38:04;;;;;;;;;;;3.30;99.90;;;;;;5060749;28;20287;-66
2024/01/07 01:40:31;;;;;;;;;;;3.30;99.90;;;;;;5062860;28;19935;-66
2024/01/07 01:42:57;;;;;;;;;;;3.30;99.90;;;;;;5065495;28;20287;-66
2024/01/07 01:45:25;;;;;;;;;;;3.30;99.90;;;;;;5071478;28;19986;-67
2024/01/07 01:47:52;;;;;;;;;;;3.30;99.90;;;;;;5071623;28;20375;-66
2024/01/07 01:50:18;;;;;;;;;;;3.30;99.90;;;;;;5068634;28;19925;-66
2024/01/07 01:52:45;;;;;;;;;;;3.30;99.90;;;;;;5057723;28;19928;-66
2024/01/07 01:55:12;;;;;;;;;;;3.30;99.90;;;;;;5066974;28;20394;-66
2024/01/07 01:57:39;;;;;;;;;;;3.20;99.90;;;;;;5062137;28;19928;-66
2024/01/07 02:00:06;;;;;;;;;;;3.20;99.90;;;;;;5070389;28;19930;-67
2024/01/07 02:02:34;;;;;;;;;;;3.20;99.90;;;;;;5066193;28;19978;-66
2024/01/07 02:05:02;;;;;;;;;;;3.20;99.90;;;;;;5068474;28;19932;-66
2024/01/07 02:07:30;;;;;;;;;;;3.20;99.90;;;;;;5060518;28;19931;-66
2024/01/07 02:09:57;;;;;;;;;;;3.20;99.90;;;;;;5068791;28;19928;-66
2024/01/07 02:12:23;;;;;;;;;;;3.10;99.90;;;;;;5067251;28;19924;-66
2024/01/07 02:14:50;;;;;;;;;;;3.20;99.90;;;;;;5072504;28;19974;-66
2024/01/07 02:17:17;;;;;;;;;;;3.20;99.90;;;;;;5070222;28;21754;-66
2024/01/07 02:19:44;;;;;;;;;;;3.20;99.90;;;;;;5056884;28;20391;-66
2024/01/07 02:22:11;;;;;;;;;;;3.20;99.90;;;;;;5068372;28;20473;-66
2024/01/07 02:24:39;;;;;;;;;;;3.20;99.90;;;;;;5069994;28;19928;-67
2024/01/07 02:27:05;;;;;;;;;;;3.20;99.90;;;;;;5066923;28;19925;-67
2024/01/07 02:29:32;;;;;;;;;;;3.10;99.90;;;;;;5065331;28;20395;-66
2024/01/07 02:31:58;;;;;;;;;;;3.20;99.90;;;;;;5065150;28;19924;-67
2024/01/07 02:34:25;;;;;;;;;;;3.10;99.90;;;;;;5066057;28;19929;-66
2024/01/07 02:36:51;;;;;;;;;;;3.10;99.90;;;;;;5069330;28;19974;-66
2024/01/07 02:39:18;;;;;;;;;;;3.10;99.90;;;;;;5068362;28;19929;-66
2024/01/07 02:41:46;;;;;;;;;;;3.20;99.90;;;;;;5071028;28;19932;-66
2024/01/07 02:44:13;;;;;;;;;;;3.30;99.90;;;;;;5070563;28;20465;-66
2024/01/07 02:46:39;;;;;;;;;;;3.10;99.90;;;;;;5068056;28;19924;-66
2024/01/07 02:49:06;;;;;;;;;;;3.10;99.90;;;;;;5064198;28;19924;-66
2024/01/07 02:51:32;;;;;;;;;;;3.00;99.90;;;;;;5066830;28;20394;-66
2024/01/07 02:53:58;;;;;;;;;;;3.10;99.90;;;;;;5071373;28;19925;-66
2024/01/07 02:56:24;;;;;;;;;;;3.00;99.90;;;;;;5063556;28;19921;-66
2024/01/07 02:58:52;;;;;;;;;;;3.00;99.90;;;;;;5064952;28;20292;-66
2024/01/07 03:01:18;;;;;;;;;;;3.00;99.90;;;;;;5066954;28;19924;-66
2024/01/07 03:03:45;;;;;;;;;;;3.00;99.90;;;;;;5063995;28;19924;-66
2024/01/07 03:06:11;;;;;;;;;;;3.00;99.90;;;;;;5067652;28;19925;-66
2024/01/07 03:08:38;;;;;;;;;;;3.00;99.90;;;;;;5070256;28;19977;-66
2024/01/07 03:11:05;;;;;;;;;;;3.00;99.90;;;;;;5069247;28;20439;-66
2024/01/07 03:13:31;;;;;;;;;;;3.10;99.90;;;;;;5060024;28;19932;-66
2024/01/07 03:15:59;;;;;;;;;;;3.10;99.90;;;;;;5066053;28;20449;-66
2024/01/07 03:18:26;;;;;;;;;;;3.10;99.90;;;;;;5065302;28;19933;-67
2024/01/07 03:20:52;;;;;;;;;;;3.00;99.90;;;;;;5068975;28;20467;-66
2024/01/07 03:23:19;;;;;;;;;;;3.10;99.90;;;;;;5070671;28;19978;-66
2024/01/07 03:25:46;;;;;;;;;;;3.10;99.90;;;;;;5062942;28;20375;-66
2024/01/07 03:28:12;;;;;;;;;;;3.10;99.90;;;;;;5064521;28;19970;-66
2024/01/07 03:30:38;;;;;;;;;;;3.10;99.90;;;;;;5068413;28;19978;-66
2024/01/07 03:33:06;;;;;;;;;;;3.10;99.90;;;;;;5068524;28;20362;-66
2024/01/07 03:35:33;;;;;;;;;;;3.10;99.90;;;;;;5072054;28;19924;-66
2024/01/07 03:37:59;;;;;;;;;;;3.20;99.90;;;;;;5059316;28;20391;-66
2024/01/07 03:40:26;;;;;;;;;;;3.20;99.90;;;;;;5063765;28;19943;-66
2024/01/07 03:42:52;;;;;;;;;;;3.20;99.90;;;;;;5066149;28;19924;-66
2024/01/07 03:45:19;;;;;;;;;;;3.20;99.90;;;;;;5067253;28;20378;-66
2024/01/07 03:47:45;;;;;;;;;;;3.20;99.90;;;;;;5066241;28;19928;-66
2024/01/07 03:50:13;;;;;;;;;;;3.20;99.90;;;;;;5070406;28;19924;-66
2024/01/07 03:52:40;;;;;;;;;;;3.20;99.90;;;;;;5062172;28;19928;-66
2024/01/07 03:55:07;;;;;;;;;;;3.20;99.90;;;;;;5064702;28;20532;-66
2024/01/07 03:57:33;;;;;;;;;;;3.20;99.90;;;;;;5068349;28;19986;-66
2024/01/07 04:00:00;;;;;;;;;;;3.20;99.90;;;;;;5066313;28;20010;-66
2024/01/07 04:02:26;;;;;;;;;;;3.20;99.90;;;;;;5065676;28;19924;-66
2024/01/07 04:04:53;;;;;;;;;;;3.20;99.90;;;;;;5069253;28;19947;-66
2024/01/07 04:07:21;;;;;;;;;;;3.20;99.90;;;;;;5064885;28;19954;-66
2024/01/07 04:09:47;;;;;;;;;;;3.20;99.90;;;;;;5064601;28;19924;-66
2024/01/07 04:12:14;;;;;;;;;;;3.20;99.90;;;;;;5067107;28;19925;-66
2024/01/07 04:14:40;;;;;;;;;;;3.20;99.90;;;;;;5069409;28;20475;-66
2024/01/07 04:17:08;;;;;;;;;;;3.20;99.90;;;;;;5066236;28;19929;-66
2024/01/07 04:19:36;;;;;;;;;;;3.20;99.90;;;;;;5058442;28;19970;-66
2024/01/07 04:22:03;;;;;;;;;;;3.20;99.90;;;;;;5066526;28;19932;-66
2024/01/07 04:24:31;;;;;;;;;;;3.20;99.90;;;;;;5066713;28;19978;-66
2024/01/07 04:26:57;;;;;;;;;;;3.30;99.90;;;;;;5067811;28;19928;-66
2024/01/07 04:29:24;;;;;;;;;;;3.20;99.90;;;;;;5067290;28;19924;-66
2024/01/07 04:31:50;;;;;;;;;;;3.20;99.90;;;;;;5061693;28;19964;-66
2024/01/07 04:34:17;;;;;;;;;;;3.20;99.90;;;;;;5070170;28;19928;-66
2024/01/07 04:36:43;;;;;;;;;;;3.20;99.90;;;;;;5064976;28;19924;-66
2024/01/07 04:39:10;;;;;;;;;;;3.20;99.90;;;;;;5068923;28;19924;-66
2024/01/07 04:41:38;;;;;;;;;;;3.20;99.90;;;;;;5070952;28;20299;-66
2024/01/07 04:44:04;;;;;;;;;;;3.10;99.90;;;;;;5064918;28;19982;-66
2024/01/07 04:46:34;;;;;;;;;;;3.10;99.90;;;;;;5065536;28;19924;-66
2024/01/07 04:49:00;;;;;;;;;;;3.10;99.90;;;;;;5068389;28;20456;-66
2024/01/07 04:51:27;;;;;;;;;;;3.10;99.90;;;;;;5068702;28;19970;-66
2024/01/07 04:53:53;;;;;;;;;;;3.10;99.90;;;;;;5064527;28;19966;-66
2024/01/07 04:56:20;;;;;;;;;;;3.10;99.90;;;;;;5068871;28;20440;-66
2024/01/07 04:58:48;;;;;;;;;;;3.10;99.90;;;;;;5070198;28;19928;-66
2024/01/07 05:01:14;;;;;;;;;;;3.10;99.90;;;;;;5066267;28;19928;-66
2024/01/07 05:03:41;;;;;;;;;;;3.10;99.90;;;;;;5066127;28;19931;-66
2024/01/07 05:06:09;;;;;;;;;;;3.10;99.90;;;;;;5070180;28;20318;-66
2024/01/07 05:08:35;;;;;;;;;;;3.10;99.90;;;;;;5069598;28;20271;-66
2024/01/07 05:11:02;;;;;;;;;;;3.10;99.90;;;;;;5069214;28;19974;-66
2024/01/07 05:13:28;;;;;;;;;;;3.10;99.90;;;;;;5065372;28;19932;-66
2024/01/07 05:15:56;;;;;;;;;;;3.10;99.90;;;;;;5064331;28;20019;-66
2024/01/07 05:18:23;;;;;;;;;;;3.10;99.90;;;;;;5063767;28;20391;-66
2024/01/07 05:20:49;;;;;;;;;;;3.10;99.90;;;;;;5069679;28;19932;-66
2024/01/07 05:23:16;;;;;;;;;;;3.10;99.90;;;;;;5070044;28;19970;-66
2024/01/07 05:25:43;;;;;;;;;;;3.10;99.90;;;;;;5063354;28;19943;-66
2024/01/07 05:28:09;;;;;;;;;;;3.10;99.90;;;;;;5062383;28;19925;-66
2024/01/07 05:30:36;;;;;;;;;;;3.10;99.90;;;;;;5062845;28;19924;-66
2024/01/07 05:33:04;;;;;;;;;;;3.10;99.90;;;;;;5070249;28;19928;-66
2024/01/07 05:35:31;;;;;;;;;;;3.10;99.90;;;;;;5066317;28;19924;-66
2024/01/07 05:37:57;;;;;;;;;;;3.10;99.90;;;;;;5070243;28;19924;-66
2024/01/07 05:40:23;;;;;;;;;;;3.10;99.90;;;;;;5064239;28;19929;-66
2024/01/07 05:42:50;;;;;;;;;;;3.10;99.90;;;;;;5068944;28;19932;-66
2024/01/07 05:45:16;;;;;;;;;;;3.00;99.90;;;;;;5072674;28;19985;-66
2024/01/07 05:47:43;;;;;;;;;;;3.00;99.90;;;;;;5074011;28;19932;-66
2024/01/07 05:50:11;;;;;;;;;;;2.90;99.90;;;;;;5067964;28;20193;-66
2024/01/07 05:52:37;;;;;;;;;;;2.90;99.90;;;;;;5062888;28;19943;-66
2024/01/07 05:55:04;;;;;;;;;;;2.90;99.90;;;;;;5067968;28;20382;-66
2024/01/07 05:57:31;;;;;;;;;;;2.90;99.90;;;;;;5071663;28;20283;-66
2024/01/07 05:59:57;;;;;;;;;;;2.80;99.90;;;;;;5072290;28;19931;-66
2024/01/07 06:02:24;;;;;;;;;;;2.80;99.90;;;;;;5071268;28;20356;-66
2024/01/07 06:04:50;;;;;;;;;;;2.80;99.90;;;;;;5072016;28;19928;-66
2024/01/07 06:07:18;;;;;;;;;;;2.70;99.90;;;;;;5065275;28;19924;-66
2024/01/07 06:09:45;;;;;;;;;;;2.70;99.90;;;;;;5069324;28;19970;-66
2024/01/07 06:12:11;;;;;;;;;;;2.70;99.90;;;;;;5066497;28;19933;-66
2024/01/07 06:14:38;;;;;;;;;;;2.60;99.90;;;;;;5069297;28;20432;-66
2024/01/07 06:17:05;;;;;;;;;;;2.50;99.90;;;;;;5070973;28;19925;-66
2024/01/07 06:19:31;;;;;;;;;;;2.50;99.90;;;;;;5066693;28;19924;-66
2024/01/07 06:21:58;;;;;;;;;;;2.50;99.90;;;;;;5068784;28;19925;-66
2024/01/07 06:24:26;;;;;;;;;;;2.60;99.90;;;;;;5068384;28;20401;-66
2024/01/07 06:26:52;;;;;;;;;;;2.40;99.90;;;;;;5067278;28;19924;-66
2024/01/07 06:29:18;;;;;;;;;;;2.60;99.90;;;;;;5070112;28;19925;-66
2024/01/07 06:31:46;;;;;;;;;;;2.60;99.90;;;;;;5069387;28;19925;-66
2024/01/07 06:34:13;;;;;;;;;;;2.50;99.90;;;;;;5067415;28;20409;-66
2024/01/07 06:36:40;;;;;;;;;;;2.50;99.90;;;;;;5063252;28;19925;-66
2024/01/07 06:39:07;;;;;;;;;;;2.50;99.90;;;;;;5063132;28;19978;-66
2024/01/07 06:41:35;;;;;;;;;;;2.50;99.90;;;;;;5069242;28;19931;-66
2024/01/07 06:44:02;;;;;;;;;;;2.60;99.90;;;;;;5072974;28;19924;-66
2024/01/07 06:46:28;;;;;;;;;;;2.50;99.90;;;;;;5070616;28;19925;-66
2024/01/07 06:48:55;;;;;;;;;;;2.60;99.90;;;;;;5066603;28;19924;-66
2024/01/07 06:51:21;;;;;;;;;;;2.60;99.90;;;;;;5070847;28;19925;-66
2024/01/07 06:53:50;;;;;;;;;;;2.50;99.90;;;;;;5069442;28;20402;-66
2024/01/07 06:56:16;;;;;;;;;;;2.50;99.90;;;;;;5070178;28;20417;-66
2024/01/07 06:58:44;;;;;;;;;;;2.50;99.90;;;;;;5072586;28;19924;-65
2024/01/07 07:01:11;;;;;;;;;;;2.50;99.90;;;;;;5068561;28;19924;-65
2024/01/07 07:03:37;;;;;;;;;;;2.50;99.90;;;;;;5069642;28;19999;-65
2024/01/07 07:06:04;;;;;;;;;;;2.60;99.90;;;;;;5071141;28;19924;-65
2024/01/07 07:08:31;;;;;;;;;;;2.50;99.90;;;;;;5066542;28;19924;-65
2024/01/07 07:10:57;;;;;;;;;;;2.50;99.90;;;;;;5071853;28;19924;-65
2024/01/07 07:13:24;;;;;;;;;;;2.60;99.90;;;;;;5070994;28;20332;-65
2024/01/07 07:15:52;;;;;;;;;;;2.60;99.90;;;;;;5064521;28;19928;-65
2024/01/07 07:18:18;;;;;;;;;;;2.40;99.90;;;;;;5069516;28;19978;-65
2024/01/07 07:20:44;;;;;;;;;;;3.00;99.90;;;;;;5072124;28;20358;-66
2024/01/07 07:23:11;;;;;;;;;;;2.40;99.90;;;;;;5065968;28;19979;-66
2024/01/07 07:25:37;;;;;;;;;;;2.50;99.90;;;;;;5064601;28;19925;-65
2024/01/07 07:28:04;;;;;;;;;;;2.40;99.90;;;;;;5066821;28;19974;-65
2024/01/07 07:30:30;;;;;;;;;;;2.30;99.90;;;;;;5067270;28;20341;-65
2024/01/07 07:32:58;;;;;;;;;;;2.30;99.90;;;;;;5070632;28;19924;-65
2024/01/07 07:35:24;;;;;;;;;;;2.30;99.90;;;;;;5069144;28;19932;-65
2024/01/07 07:37:51;;;;;;;;;;;2.20;99.90;;;;;;5067242;28;20271;-66
2024/01/07 07:40:18;;;;;;;;;;;2.30;99.90;;;;;;5067141;28;19995;-65
2024/01/07 07:42:45;;;;;;;;;;;2.20;99.90;;;;;;5066524;28;20310;-65
2024/01/07 07:45:12;;;;;;;;;;;2.20;99.90;;;;;;5065498;28;20038;-65
2024/01/07 07:47:40;;;;;;;;;;;2.20;99.90;;;;;;5070128;28;19925;-66
2024/01/07 07:50:09;;;;;;;;;;;2.20;99.90;;;;;;5069411;28;19947;-65
2024/01/07 07:52:35;;;;;;;;;;;2.20;99.90;;;;;;5067717;28;19964;-66
2024/01/07 07:55:02;;;;;;;;;;;2.20;99.90;;;;;;5065748;28;19995;-65
2024/01/07 07:57:28;;;;;;;;;;;2.20;99.90;;;;;;5064344;28;20434;-65
2024/01/07 07:59:55;;;;;;;;;;;2.20;99.90;;;;;;5068161;28;20489;-65
2024/01/07 08:02:21;;;;;;;;;;;2.10;99.90;;;;;;5068189;28;19932;-65
2024/01/07 08:04:48;;;;;;;;;;;2.10;99.90;;;;;;5069001;28;19924;-65
2024/01/07 08:07:16;;;;;;;;;;;2.10;99.90;;;;;;5063966;28;19954;-66
2024/01/07 08:09:42;;;;;;;;;;;2.10;99.90;;;;;;5068593;28;19928;-66
2024/01/07 08:12:09;;;;;;;;;;;2.10;99.90;;;;;;5059242;28;19924;-66
2024/01/07 08:14:35;;;;;;;;;;;2.10;99.90;;;;;;5065621;28;19983;-65
2024/01/07 08:17:04;;;;;;;;;;;2.10;99.90;;;;;;5066229;28;19962;-66
2024/01/07 08:19:31;;;;;;;;;;;2.10;99.90;;;;;;5066049;28;20429;-66
2024/01/07 08:21:57;;;;;;;;;;;2.10;99.90;;;;;;5066572;28;19936;-66
2024/01/07 08:24:25;;;;;;;;;;;2.10;99.90;;;;;;5067397;28;19924;-65
2024/01/07 08:26:51;;;;;;;;;;;2.10;99.90;;;;;;5066946;28;19936;-66
2024/01/07 08:29:18;;;;;;;;;;;2.00;99.90;;;;;;5066368;28;19925;-71
2024/01/07 08:31:44;;;;;;;;;;;2.00;99.90;;;;;;5066798;28;19933;-70
2024/01/07 08:34:11;;;;;;;;;;;2.50;99.90;;;;;;5066542;28;20002;-70
2024/01/07 08:36:38;;;;;;;;;;;3.70;99.90;;;;;;5066125;28;19924;-70
2024/01/07 08:39:04;;;;;;;;;;;5.10;99.90;;;;;;5066666;28;19928;-71
2024/01/07 08:41:32;;;;;;;;;;;5.80;99.90;;;;;;5065701;28;19936;-65
2024/01/07 08:43:59;;;;;;;;;;;5.70;99.90;;;;;;5066090;28;19978;-65
2024/01/07 08:46:25;;;;;;;;;;;5.10;99.90;;;;;;5066141;28;20360;-65
2024/01/07 08:48:52;;;;;;;;;;;4.30;99.90;;;;;;5065627;28;19925;-65
2024/01/07 08:51:18;;;;;;;;;;;3.70;99.90;;;;;;5066997;28;20382;-65
2024/01/07 08:53:45;;;;;;;;;;;3.30;99.90;;;;;;5066636;28;19933;-65
2024/01/07 08:56:12;;;;;;;;;;;2.90;99.90;;;;;;5067583;28;19928;-65
2024/01/07 08:58:42;;;;;;;;;;;2.60;99.90;;;;;;5066846;28;20340;-65
2024/01/07 09:01:08;;;;;;;;;;;2.40;99.90;;;;;;5066408;28;19982;-65
2024/01/07 09:03:35;;;;;;;;;;;2.30;99.90;;;;;;5066574;28;19966;-65
2024/01/07 09:06:02;;;;;;;;;;;2.20;99.90;;;;;;5066898;28;20395;-65
2024/01/07 09:08:28;;;;;;;;;;;2.10;99.90;;;;;;5066392;28;20342;-65
2024/01/07 09:10:55;;;;;;;;;;;2.10;99.90;;;;;;5065343;28;19943;-65
2024/01/07 09:13:21;;;;;;;;;;;2.10;99.90;;;;;;5066890;28;19933;-65
2024/01/07 09:15:51;;;;;;;;;;;2.10;99.90;;;;;;5067288;28;19932;-65
2024/01/07 09:18:18;;;;;;;;;;;2.10;99.90;;;;;;5069645;28;19986;-65
2024/01/07 09:20:45;;;;;;;;;;;2.10;99.90;;;;;;5070348;28;19951;-66
2024/01/07 09:23:11;;;;;;;;;;;2.20;99.90;;;;;;5069764;28;20457;-65
2024/01/07 09:25:37;;;;;;;;;;;2.10;99.90;;;;;;5070258;28;19933;-65
2024/01/07 09:28:05;;;;;;;;;;;2.10;99.90;;;;;;5069263;28;19986;-65
2024/01/07 09:30:31;;;;;;;;;;;2.10;99.90;;;;;;5069209;28;19936;-65
2024/01/07 09:32:59;;;;;;;;;;;2.10;99.90;;;;;;5068784;28;19970;-65
2024/01/07 09:35:26;;;;;;;;;;;2.00;99.90;;;;;;5067669;28;19924;-65
2024/01/07 09:37:52;;;;;;;;;;;2.00;99.90;;;;;;5069034;28;19925;-65
2024/01/07 09:40:19;;;;;;;;;;;2.00;99.90;;;;;;5069795;28;19932;-65
2024/01/07 09:42:46;;;;;;;;;;;2.00;99.90;;;;;;5070353;28;20021;-65
2024/01/07 09:45:13;;;;;;;;;;;2.00;99.90;;;;;;5069514;28;19952;-65
2024/01/07 09:47:40;;;;;;;;;;;2.10;99.90;;;;;;5069696;28;20668;-65
2024/01/07 09:50:09;;;;;;;;;;;1.90;99.90;;;;;;5069730;28;19993;-65
2024/01/07 09:52:36;;;;;;;;;;;1.90;99.90;;;;;;5069439;28;19932;-65
2024/01/07 09:55:03;;;;;;;;;;;1.80;99.90;;;;;;5069928;28;20071;-65
2024/01/07 09:57:30;;;;;;;;;;;1.80;99.90;;;;;;5069880;28;19975;-65
2024/01/07 09:59:57;;;;;;;;;;;1.70;99.90;;;;;;5068676;28;19932;-65
2024/01/07 10:02:23;;;;;;;;;;;1.70;99.90;;;;;;5069218;28;19928;-65
2024/01/07 10:04:50;;;;;;;;;;;1.70;99.90;;;;;;5069273;28;19929;-65
2024/01/07 10:07:18;;;;;;;;;;;1.70;99.90;;;;;;5069697;28;19932;-65
2024/01/07 10:09:44;;;;;;;;;;;1.70;99.90;;;;;;5069152;28;20307;-65
2024/01/07 10:12:12;;;;;;;;;;;1.70;99.90;;;;;;5068978;28;19951;-65
2024/01/07 10:14:39;;;;;;;;;;;1.70;99.90;;;;;;5068870;28;19925;-65
2024/01/07 10:17:14;;;;;;;;;;;1.60;99.90;;;;;;5068586;28;19981;-65
2024/01/07 10:19:41;;;;;;;;;;;1.60;99.90;;;;;;5068957;28;20415;-65
2024/01/07 10:22:07;;;;;;;;;;;1.50;99.90;;;;;;5070123;28;19980;-65
2024/01/07 10:24:39;;;;;;;;;;;1.50;99.90;;;;;;5069108;28;19928;-66
2024/01/07 10:27:06;;;;;;;;;;;1.50;99.90;;;;;;5067781;28;19932;-65
2024/01/07 10:29:33;;;;;;;;;;;1.50;99.90;;;;;;5069057;28;19929;-65
2024/01/07 10:32:02;;;;;;;;;;;1.50;99.90;;;;;;5068946;28;20450;-65
2024/01/07 10:34:30;;;;;;;;;;;1.50;99.90;;;;;;5067790;28;19970;-66
2024/01/07 10:36:57;;;;;;;;;;;1.50;99.90;;;;;;5068414;28;19954;-66
2024/01/07 10:39:24;;;;;;;;;;;1.50;99.90;;;;;;5069276;28;19928;-65
2024/01/07 10:41:53;;;;;;;;;;;1.50;99.90;;;;;;5067911;28;20332;-66
2024/01/07 10:44:20;;;;;;;;;;;1.60;99.90;;;;;;5068031;28;19924;-66
2024/01/07 10:46:47;;;;;;;;;;;1.60;99.90;;;;;;5067368;28;19959;-66
2024/01/07 10:49:20;;;;;;;;;;;1.50;99.90;;;;;;5069245;28;19978;-65
2024/01/07 10:51:51;;;;;;;;;;;1.50;99.90;;;;;;5068893;28;19924;-65
2024/01/07 10:54:20;;;;;;;;;;;1.60;99.90;;;;;;5067983;28;19977;-65
2024/01/07 10:56:49;;;;;;;;;;;1.60;99.90;;;;;;5067727;28;19928;-66
2024/01/07 10:59:17;;;;;;;;;;;1.60;99.90;;;;;;5068115;28;19924;-66
2024/01/07 11:01:44;;;;;;;;;;;1.50;99.90;;;;;;5067843;28;19933;-66
2024/01/07 11:04:14;;;;;;;;;;;1.40;99.90;;;;;;5068266;28;19933;-66
2024/01/07 11:06:43;;;;;;;;;;;1.40;99.90;;;;;;5067807;28;20016;-65
2024/01/07 11:09:15;;;;;;;;;;;1.40;99.90;;;;;;5067646;28;20344;-65
2024/01/07 11:11:42;;;;;;;;;;;1.40;99.90;;;;;;5068282;28;19966;-65
2024/01/07 11:14:23;;;;;;;;;;;1.40;99.90;;;;;;5067986;28;20007;-65
2024/01/07 11:16:53;;;;;;;;;;;1.30;99.90;;;;;;5068000;28;19944;-65
2024/01/07 11:19:20;;;;;;;;;;;1.20;99.90;;;;;;5068733;28;20406;-66
2024/01/07 11:21:47;;;;;;;;;;;1.20;99.90;;;;;;5067248;28;19932;-65
2024/01/07 11:24:28;;;;;;;;;;;1.10;99.90;;;;;;5066829;28;20854;-66
2024/01/07 11:26:55;;;;;;;;;;;1.10;99.90;;;;;;5066879;28;20305;-66
2024/01/07 11:29:21;;;;;;;;;;;0.70;99.90;;;;;;5066595;28;19936;-65
2024/01/07 11:31:48;;;;;;;;;;;1.10;99.90;;;;;;5067051;28;19978;-65
2024/01/07 11:34:29;;;;;;;;;;;1.10;99.90;;;;;;5066958;28;19924;-65
2024/01/07 11:36:57;;;;;;;;;;;1.00;99.90;;;;;;5067890;28;19936;-65
2024/01/07 11:39:23;;;;;;;;;;;1.10;99.90;;;;;;5067140;28;19925;-65
2024/01/07 11:41:50;;;;;;;;;;;1.10;99.90;;;;;;5066654;28;19933;-65
2024/01/07 11:44:17;;;;;;;;;;;1.10;99.90;;;;;;5067366;28;19974;-65
2024/01/07 11:46:43;;;;;;;;;;;1.20;99.90;;;;;;5067451;28;20562;-66
2024/01/07 11:49:10;;;;;;;;;;;1.20;99.90;;;;;;5067294;28;19940;-65
2024/01/07 11:51:37;;;;;;;;;;;1.20;99.90;;;;;;5066951;28;19955;-65
2024/01/07 11:54:06;;;;;;;;;;;1.10;99.90;;;;;;5066622;28;20326;-65
2024/01/07 11:56:33;;;;;;;;;;;1.10;99.90;;;;;;5067777;28;19943;-65
2024/01/07 11:59:00;;;;;;;;;;;1.20;99.90;;;;;;5066228;28;19924;-65
2024/01/07 12:01:27;;;;;;;;;;;1.10;99.90;;;;;;5066644;28;19932;-65
2024/01/07 12:03:53;;;;;;;;;;;1.10;99.90;;;;;;5067155;28;20301;-65
2024/01/07 12:06:20;;;;;;;;;;;1.10;99.90;;;;;;5066508;28;19936;-65
2024/01/07 12:08:46;;;;;;;;;;;1.20;99.90;;;;;;5067340;28;19969;-65
2024/01/07 12:11:15;;;;;;;;;;;1.10;99.90;;;;;;5067695;28;20019;-66
2024/01/07 12:13:42;;;;;;;;;;;1.10;99.90;;;;;;5067774;28;19932;-65
2024/01/07 12:16:10;;;;;;;;;;;1.10;99.90;;;;;;5067916;28;19932;-66
2024/01/07 12:18:37;;;;;;;;;;;1.20;99.90;;;;;;5068321;28;19932;-66
2024/01/07 12:21:04;;;;;;;;;;;1.00;99.90;;;;;;5067458;28;19940;-65
2024/01/07 12:23:35;;;;;;;;;;;1.00;99.90;;;;;;5067625;28;20406;-66
2024/01/07 12:26:07;;;;;;;;;;;0.90;99.90;;;;;;5068108;28;19978;-66
2024/01/07 12:28:36;;;;;;;;;;;0.90;99.90;;;;;;5064669;28;19933;-65
2024/01/07 12:31:03;;;;;;;;;;;0.90;99.90;;;;;;5067226;28;19929;-65
2024/01/07 12:33:31;;;;;;;;;;;0.70;99.90;;;;;;5067053;28;19978;-65
2024/01/07 12:35:58;;;;;;;;;;;0.70;99.90;;;;;;5065661;28;20413;-65
2024/01/07 12:38:24;;;;;;;;;;;0.50;99.90;;;;;;5067561;28;19932;-65
2024/01/07 12:40:51;;;;;;;;;;;0.50;99.90;;;;;;5067015;28;19970;-66
2024/01/07 12:43:17;;;;;;;;;;;0.60;99.90;;;;;;5067225;28;19928;-66
2024/01/07 12:45:46;;;;;;;;;;;0.60;99.90;;;;;;5067380;28;19985;-65
2024/01/07 12:48:12;;;;;;;;;;;0.50;99.90;;;;;;5066663;28;20465;-65
2024/01/07 12:50:39;;;;;;;;;;;0.50;99.90;;;;;;5070026;28;19940;-65
2024/01/07 12:53:05;;;;;;;;;;;0.50;99.90;;;;;;5071352;28;21360;-65
2024/01/07 12:55:32;;;;;;;;;;;0.40;99.90;;;;;;5070962;28;19931;-65
2024/01/07 12:57:59;;;;;;;;;;;0.40;99.90;;;;;;5071081;28;19924;-65
2024/01/07 13:00:26;;;;;;;;;;;0.40;99.90;;;;;;5069331;28;19939;-65
2024/01/07 13:02:54;;;;;;;;;;;0.40;99.90;;;;;;5065185;28;20030;-65
2024/01/07 13:05:20;;;;;;;;;;;0.40;99.90;;;;;;5068192;28;19924;-65
2024/01/07 13:07:47;;;;;;;;;;;0.50;99.90;;;;;;5069448;28;19940;-65
2024/01/07 13:10:14;;;;;;;;;;;0.40;99.90;;;;;;5069343;28;19954;-65
2024/01/07 13:12:40;;;;;;;;;;;0.30;99.90;;;;;;5069469;28;19939;-65
2024/01/07 13:15:07;;;;;;;;;;;0.40;99.90;;;;;;5068568;28;19933;-65
2024/01/07 13:17:34;;;;;;;;;;;0.40;99.90;;;;;;5068971;28;20264;-65
2024/01/07 13:20:06;;;;;;;;;;;0.50;99.90;;;;;;5068717;28;19936;-65
2024/01/07 13:22:33;;;;;;;;;;;0.30;99.90;;;;;;5069713;28;20604;-65
2024/01/07 13:24:59;;;;;;;;;;;0.30;99.90;;;;;;5068479;28;19929;-65
2024/01/07 13:27:26;;;;;;;;;;;0.30;99.90;;;;;;5070718;28;19932;-65
2024/01/07 13:29:53;;;;;;;;;;;0.30;99.90;;;;;;5068751;28;19939;-65
2024/01/07 13:32:19;;;;;;;;;;;0.40;99.90;;;;;;5070698;28;19932;-65
2024/01/07 13:34:46;;;;;;;;;;;0.20;99.90;;;;;;5069057;28;19940;-66
2024/01/07 13:37:13;;;;;;;;;;;0.30;99.90;;;;;;5068830;28;19986;-65
2024/01/07 13:39:40;;;;;;;;;;;0.20;99.90;;;;;;5068760;28;19945;-66
2024/01/07 13:42:06;;;;;;;;;;;0.10;99.90;;;;;;5069482;28;19964;-66
2024/01/07 13:44:34;;;;;;;;;;;0.10;99.90;;;;;;5068117;28;19963;-66
2024/01/07 13:47:01;;;;;;;;;;;0.10;99.90;;;;;;5068739;28;19939;-65
2024/01/07 13:49:28;;;;;;;;;;;0.00;99.90;;;;;;5070262;28;20027;-66
2024/01/07 13:51:55;;;;;;;;;;;0.00;99.90;;;;;;5068472;28;19960;-64
2024/01/07 13:54:23;;;;;;;;;;;0.00;99.90;;;;;;5069783;28;19924;-65
2024/01/07 13:56:50;;;;;;;;;;;-0.10;99.90;;;;;;5069590;28;20692;-65
2024/01/07 13:59:17;;;;;;;;;;;0.00;99.90;;;;;;5069572;28;19939;-65
2024/01/07 14:01:44;;;;;;;;;;;-0.20;99.90;;;;;;5068548;28;19940;-65
2024/01/07 14:04:10;;;;;;;;;;;-0.10;99.90;;;;;;5068881;28;19924;-65
2024/01/07 14:06:37;;;;;;;;;;;-0.20;99.90;;;;;;5067883;28;19936;-65
2024/01/07 14:09:03;;;;;;;;;;;-0.20;99.90;;;;;;5068523;28;21415;-65
2024/01/07 14:11:31;;;;;;;;;;;-0.20;99.90;;;;;;5068858;28;19931;-65
2024/01/07 14:13:58;;;;;;;;;;;-0.30;99.90;;;;;;5067246;28;19982;-65
2024/01/07 14:16:24;;;;;;;;;;;-0.30;99.90;;;;;;5067109;28;19924;-65
2024/01/07 14:18:51;;;;;;;;;;;-0.30;99.90;;;;;;5068563;28;19936;-65
2024/01/07 14:21:17;;;;;;;;;;;-0.30;99.90;;;;;;5069879;28;20271;-65
2024/01/07 14:23:44;;;;;;;;;;;-0.40;99.90;;;;;;5069009;28;19935;-65
2024/01/07 14:26:10;;;;;;;;;;;-0.40;99.90;;;;;;5069468;28;20001;-65